Time,TemperatureF,DewpointF,PressureIn,WindDirection,WindDirectionDegrees,WindSpeedMPH,WindSpeedGustMPH,Humidity,HourlyPrecipIn,Conditions,Clouds,dailyrainin,SoftwareType,DateUTC
2013-01-24 00:07:00,48.2,47.7,29.96,NNE,22,0.0,-999.0,98,-99.99,,,0.00,Acu-Link.com,2013-01-24 08:07:00,
2013-01-24 00:22:00,48.0,47.5,29.96,NNW,337,3.2,-999.0,98,-99.99,,,0.00,Acu-Link.com,2013-01-24 08:22:00,
2013-01-24 00:37:00,47.8,47.3,29.96,NW,315,0.0,-999.0,98,-99.99,,,0.00,Acu-Link.com,2013-01-24 08:37:00,
2013-01-24 00:52:00,47.8,47.3,29.95,North,0,0.0,-999.0,98,-99.99,,,0.00,Acu-Link.com,2013-01-24 08:52:00,
2013-01-24 01:16:00,47.8,47.3,29.96,NNE,22,0.0,-999.0,98,-99.99,,,0.00,Acu-Link.com,2013-01-24 09:16:00,
2013-01-24 01:31:00,47.8,47.3,29.96,East,90,0.0,-999.0,98,-99.99,,,0.00,Acu-Link.com,2013-01-24 09:31:00,
2013-01-24 01:46:00,48.0,47.5,29.96,North,0,2.2,-999.0,98,-99.99,,,0.00,Acu-Link.com,2013-01-24 09:46:00,
2013-01-24 02:01:00,48.0,47.5,29.96,NNW,337,0.0,-999.0,98,-99.99,,,0.00,Acu-Link.com,2013-01-24 10:01:00,
2013-01-24 02:16:00,48.0,47.5,29.94,North,0,2.2,-999.0,98,-99.99,,,0.00,Acu-Link.com,2013-01-24 10:16:00,
2013-01-24 02:31:00,48.0,47.5,29.97,NNE,22,0.0,-999.0,98,-99.99,,,0.00,Acu-Link.com,2013-01-24 10:31:00,
2013-01-24 02:47:00,47.8,47.3,29.96,NE,45,1.1,-999.0,98,-99.99,,,0.00,Acu-Link.com,2013-01-24 10:47:00,
2013-01-24 03:02:00,47.8,47.3,29.96,NNE,22,0.0,-999.0,98,-99.99,,,0.00,Acu-Link.com,2013-01-24 11:02:00,
2013-01-24 03:17:00,47.8,47.3,29.95,NNE,22,0.0,-999.0,98,-99.99,,,0.00,Acu-Link.com,2013-01-24 11:17:00,
2013-01-24 03:32:00,47.8,47.3,29.96,North,0,0.0,-999.0,98,-99.99,,,0.00,Acu-Link.com,2013-01-24 11:32:00,
2013-01-24 03:47:00,47.8,47.3,29.95,NNE,22,0.0,-999.0,98,-99.99,,,0.00,Acu-Link.com,2013-01-24 11:47:00,
2013-01-24 04:02:00,47.8,47.3,29.96,NNW,337,0.0,-999.0,98,-99.99,,,0.00,Acu-Link.com,2013-01-24 12:02:00,
2013-01-24 04:17:00,47.8,47.3,29.95,North,0,0.0,-999.0,98,-99.99,,,0.00,Acu-Link.com,2013-01-24 12:17:00,
2013-01-24 04:32:00,47.8,47.3,29.96,NNE,22,0.0,-999.0,98,-99.99,,,0.00,Acu-Link.com,2013-01-24 12:32:00,
2013-01-24 04:47:00,47.8,47.3,29.98,NNE,22,0.0,-999.0,98,-99.99,,,0.00,Acu-Link.com,2013-01-24 12:47:00,
2013-01-24 05:03:00,47.8,47.3,29.97,NNE,22,0.0,-999.0,98,-99.99,,,0.00,Acu-Link.com,2013-01-24 13:03:00,
2013-01-24 05:18:00,47.8,47.3,29.96,NNE,22,0.0,-999.0,98,-99.99,,,0.00,Acu-Link.com,2013-01-24 13:18:00,
2013-01-24 05:33:00,48.0,47.5,29.99,NNE,22,0.0,-999.0,98,-99.99,,,0.00,Acu-Link.com,2013-01-24 13:33:00,
2013-01-24 05:48:00,48.0,47.5,29.99,NNE,22,0.0,-999.0,98,-99.99,,,0.00,Acu-Link.com,2013-01-24 13:48:00,
2013-01-24 06:03:00,48.0,47.5,29.99,NE,45,0.0,-999.0,98,-99.99,,,0.00,Acu-Link.com,2013-01-24 14:03:00,
2013-01-24 06:18:00,48.2,47.7,29.97,NNE,22,0.0,-999.0,98,-99.99,,,0.00,Acu-Link.com,2013-01-24 14:18:00,
2013-01-24 06:33:00,48.2,47.7,29.98,NNE,22,0.0,-999.0,98,-99.99,,,0.00,Acu-Link.com,2013-01-24 14:33:00,
2013-01-24 06:48:00,48.2,47.7,29.99,NNE,22,0.0,-999.0,98,-99.99,,,0.00,Acu-Link.com,2013-01-24 14:48:00,
2013-01-24 07:03:00,48.4,47.9,29.99,NE,45,2.2,-999.0,98,-99.99,,,0.00,Acu-Link.com,2013-01-24 15:03:00,
2013-01-24 07:19:00,48.4,47.9,29.99,West,270,0.0,-999.0,98,-99.99,,,0.00,Acu-Link.com,2013-01-24 15:19:00,
2013-01-24 07:34:00,48.6,48.1,30.00,NNE,22,0.0,-999.0,98,-99.99,,,0.00,Acu-Link.com,2013-01-24 15:34:00,
2013-01-24 07:49:00,48.7,48.2,29.98,West,270,1.7,-999.0,98,-99.99,,,0.00,Acu-Link.com,2013-01-24 15:49:00,
2013-01-24 08:04:00,48.6,48.1,29.98,SW,225,0.0,-999.0,98,-99.99,,,0.00,Acu-Link.com,2013-01-24 16:04:00,
2013-01-24 08:19:00,48.9,48.4,29.99,NE,45,1.1,-999.0,98,-99.99,,,0.00,Acu-Link.com,2013-01-24 16:19:00,
2013-01-24 08:34:00,49.6,49.1,29.97,North,0,4.7,-999.0,98,-99.99,,,0.00,Acu-Link.com,2013-01-24 16:34:00,
2013-01-24 08:49:00,49.8,49.3,29.99,NNE,22,2.7,-999.0,98,-99.99,,,0.00,Acu-Link.com,2013-01-24 16:49:00,
2013-01-24 09:04:00,50.2,49.7,29.99,NE,45,3.2,-999.0,98,-99.99,,,0.00,Acu-Link.com,2013-01-24 17:04:00,
2013-01-24 09:19:00,50.9,50.4,30.01,NNE,22,0.0,-999.0,98,-99.99,,,0.00,Acu-Link.com,2013-01-24 17:19:00,
2013-01-24 09:35:00,51.1,50.6,29.99,North,0,0.0,-999.0,98,-99.99,,,0.00,Acu-Link.com,2013-01-24 17:35:00,
2013-01-24 09:50:00,51.6,51.1,30.01,NE,45,2.7,-999.0,98,-99.99,,,0.00,Acu-Link.com,2013-01-24 17:50:00,
2013-01-24 10:05:00,51.8,51.3,30.00,NNE,22,3.2,-999.0,98,-99.99,,,0.00,Acu-Link.com,2013-01-24 18:05:00,
2013-01-24 10:20:00,52.5,52.0,30.00,NNE,22,2.7,-999.0,98,-99.99,,,0.00,Acu-Link.com,2013-01-24 18:20:00,
2013-01-24 10:35:00,52.9,52.4,30.01,NNE,22,0.0,-999.0,98,-99.99,,,0.00,Acu-Link.com,2013-01-24 18:35:00,
2013-01-24 10:50:00,53.6,53.0,30.01,NE,45,0.0,-999.0,98,-99.99,,,0.00,Acu-Link.com,2013-01-24 18:50:00,
2013-01-24 11:05:00,53.8,53.2,30.01,NNE,22,0.0,-999.0,98,-99.99,,,0.00,Acu-Link.com,2013-01-24 19:05:00,
2013-01-24 11:20:00,54.5,53.9,30.01,NNE,22,0.0,-999.0,98,-99.99,,,0.00,Acu-Link.com,2013-01-24 19:20:00,
2013-01-24 11:35:00,54.7,54.1,30.01,ESE,112,0.0,-999.0,98,-99.99,,,0.00,Acu-Link.com,2013-01-24 19:35:00,
2013-01-24 11:50:00,55.2,54.4,30.00,South,180,0.0,-999.0,97,-99.99,,,0.00,Acu-Link.com,2013-01-24 19:50:00,
2013-01-24 12:06:00,55.4,54.0,30.00,South,180,0.0,-999.0,95,-99.99,,,0.00,Acu-Link.com,2013-01-24 20:06:00,
2013-01-24 12:21:00,56.1,54.4,30.00,ESE,112,0.0,-999.0,94,-99.99,,,0.00,Acu-Link.com,2013-01-24 20:21:00,
2013-01-24 12:36:00,56.1,53.8,30.00,NW,315,0.0,-999.0,92,-99.99,,,0.00,Acu-Link.com,2013-01-24 20:36:00,
2013-01-24 12:51:00,56.5,54.5,29.99,South,180,0.0,-999.0,93,-99.99,,,0.00,Acu-Link.com,2013-01-24 20:51:00,
2013-01-24 13:06:00,57.6,55.0,29.99,East,90,0.0,-999.0,91,-99.99,,,0.00,Acu-Link.com,2013-01-24 21:06:00,
2013-01-24 13:21:00,57.4,55.1,30.00,SSW,202,3.7,-999.0,92,-99.99,,,0.01,Acu-Link.com,2013-01-24 21:21:00,
2013-01-24 13:36:00,57.2,55.2,29.99,SSE,157,1.7,-999.0,93,-99.99,,,0.01,Acu-Link.com,2013-01-24 21:36:00,
2013-01-24 13:51:00,57.4,55.7,29.99,SSW,202,0.0,-999.0,94,-99.99,,,0.01,Acu-Link.com,2013-01-24 21:51:00,
2013-01-24 14:06:00,56.8,55.7,29.98,SSW,202,0.0,-999.0,96,-99.99,,,0.01,Acu-Link.com,2013-01-24 22:06:00,
2013-01-24 14:22:00,55.8,55.2,29.99,ESE,112,0.0,-999.0,98,-99.99,,,0.02,Acu-Link.com,2013-01-24 22:22:00,
2013-01-24 14:37:00,55.0,54.4,29.99,WSW,247,2.7,-999.0,98,-99.99,,,0.04,Acu-Link.com,2013-01-24 22:37:00,
2013-01-24 14:52:00,54.5,53.9,29.99,SSW,202,0.0,-999.0,98,-99.99,,,0.06,Acu-Link.com,2013-01-24 22:52:00,
2013-01-24 15:07:00,54.3,53.7,29.98,SSW,202,0.0,-999.0,98,-99.99,,,0.06,Acu-Link.com,2013-01-24 23:07:00,
2013-01-24 15:22:00,54.3,53.7,29.99,SSE,157,0.0,-999.0,98,-99.99,,,0.07,Acu-Link.com,2013-01-24 23:22:00,
2013-01-24 15:37:00,54.3,53.7,29.99,SSW,202,0.0,-999.0,98,-99.99,,,0.07,Acu-Link.com,2013-01-24 23:37:00,
2013-01-24 15:52:00,54.3,53.7,30.00,South,180,0.0,-999.0,98,-99.99,,,0.07,Acu-Link.com,2013-01-24 23:52:00,
2013-01-24 16:07:00,54.3,53.7,29.99,West,270,0.0,-999.0,98,-99.99,,,0.07,Acu-Link.com,2013-01-25 00:07:00,
2013-01-24 16:22:00,54.3,53.7,29.99,South,180,0.0,-999.0,98,-99.99,,,0.07,Acu-Link.com,2013-01-25 00:22:00,
2013-01-24 16:38:00,54.3,53.7,30.00,West,270,0.0,-999.0,98,-99.99,,,0.07,Acu-Link.com,2013-01-25 00:38:00,
2013-01-24 16:53:00,54.3,53.7,30.00,NW,315,0.0,-999.0,98,-99.99,,,0.07,Acu-Link.com,2013-01-25 00:53:00,
2013-01-24 17:08:00,54.1,53.5,30.01,West,270,0.0,-999.0,98,-99.99,,,0.07,Acu-Link.com,2013-01-25 01:08:00,
2013-01-24 17:23:00,54.0,53.4,30.00,NW,315,0.0,-999.0,98,-99.99,,,0.08,Acu-Link.com,2013-01-25 01:23:00,
2013-01-24 17:38:00,53.8,53.2,30.00,NNE,22,0.0,-999.0,98,-99.99,,,0.08,Acu-Link.com,2013-01-25 01:38:00,
2013-01-24 17:53:00,53.8,53.2,30.00,West,270,0.0,-999.0,98,-99.99,,,0.08,Acu-Link.com,2013-01-25 01:53:00,
2013-01-24 18:08:00,53.6,53.0,30.01,West,270,0.0,-999.0,98,-99.99,,,0.08,Acu-Link.com,2013-01-25 02:08:00,
2013-01-24 18:23:00,53.4,52.8,30.02,North,0,0.0,-999.0,98,-99.99,,,0.08,Acu-Link.com,2013-01-25 02:23:00,
2013-01-24 18:38:00,53.4,52.8,30.03,NE,45,0.0,-999.0,98,-99.99,,,0.08,Acu-Link.com,2013-01-25 02:38:00,
2013-01-24 18:54:00,53.2,52.6,30.01,West,270,0.0,-999.0,98,-99.99,,,0.08,Acu-Link.com,2013-01-25 02:54:00,
2013-01-24 19:09:00,53.2,52.6,30.02,NNE,22,0.0,-999.0,98,-99.99,,,0.09,Acu-Link.com,2013-01-25 03:09:00,
2013-01-24 19:24:00,53.2,52.6,30.02,NW,315,0.0,-999.0,98,-99.99,,,0.09,Acu-Link.com,2013-01-25 03:24:00,
2013-01-24 19:39:00,53.1,52.5,30.02,NW,315,0.0,-999.0,98,-99.99,,,0.09,Acu-Link.com,2013-01-25 03:39:00,
2013-01-24 19:54:00,53.2,52.6,30.04,NNW,337,0.0,-999.0,98,-99.99,,,0.09,Acu-Link.com,2013-01-25 03:54:00,
2013-01-24 20:09:00,53.2,52.6,30.03,NE,45,0.0,-999.0,98,-99.99,,,0.09,Acu-Link.com,2013-01-25 04:09:00,
2013-01-24 20:24:00,53.2,52.6,30.01,NE,45,0.0,-999.0,98,-99.99,,,0.09,Acu-Link.com,2013-01-25 04:24:00,
2013-01-24 20:39:00,53.2,52.6,30.04,NNE,22,0.0,-999.0,98,-99.99,,,0.09,Acu-Link.com,2013-01-25 04:39:00,
2013-01-24 20:54:00,53.2,52.6,30.05,NNE,22,0.0,-999.0,98,-99.99,,,0.09,Acu-Link.com,2013-01-25 04:54:00,
2013-01-24 21:10:00,53.1,52.5,30.04,NNE,22,0.0,-999.0,98,-99.99,,,0.09,Acu-Link.com,2013-01-25 05:10:00,
2013-01-24 21:25:00,53.2,52.6,30.04,North,0,0.0,-999.0,98,-99.99,,,0.09,Acu-Link.com,2013-01-25 05:25:00,
2013-01-24 21:40:00,53.2,52.6,30.04,NE,45,0.0,-999.0,98,-99.99,,,0.09,Acu-Link.com,2013-01-25 05:40:00,
2013-01-24 21:55:00,53.2,52.6,30.04,NNE,22,0.0,-999.0,98,-99.99,,,0.09,Acu-Link.com,2013-01-25 05:55:00,
2013-01-24 22:10:00,53.2,52.6,30.04,North,0,0.0,-999.0,98,-99.99,,,0.09,Acu-Link.com,2013-01-25 06:10:00,
2013-01-24 22:25:00,53.2,52.6,30.04,NE,45,0.0,-999.0,98,-99.99,,,0.09,Acu-Link.com,2013-01-25 06:25:00,
2013-01-24 22:40:00,53.4,52.8,30.04,NE,45,0.0,-999.0,98,-99.99,,,0.09,Acu-Link.com,2013-01-25 06:40:00,
2013-01-24 22:56:00,53.4,52.8,30.05,NNE,22,0.0,-999.0,98,-99.99,,,0.09,Acu-Link.com,2013-01-25 06:56:00,
2013-01-24 23:11:00,53.4,52.8,30.05,WNW,292,0.0,-999.0,98,-99.99,,,0.09,Acu-Link.com,2013-01-25 07:11:00,
2013-01-24 23:26:00,53.2,52.6,30.05,NNE,22,0.0,-999.0,98,-99.99,,,0.09,Acu-Link.com,2013-01-25 07:26:00,
2013-01-24 23:41:00,53.2,52.6,30.05,NNE,22,0.0,-999.0,98,-99.99,,,0.09,Acu-Link.com,2013-01-25 07:41:00,
2013-01-24 23:56:00,53.1,52.5,30.05,NNE,22,0.0,-999.0,98,-99.99,,,0.09,Acu-Link.com,2013-01-25 07:56:00,